< < Back
Terminal Aerodrome Forecast


Current Version              Previous Versions:   1  2  3  4  5  6  7  8  9  

Terminal Aerodrome Forecast

554
FTUS42 KCHS 222300
TAFSAV
TAF
KSAV 222322Z 2300/2324 01004KT P6SM VCSH SCT030 BKN045
      TEMPO 2300/2303 5SM -SHRA BR SCT020 BKN040
     FM230500 04009KT P6SM VCSH SCT015 BKN035
     FM231400 08010KT P6SM SCT030 BKN060=

Latest METAR

608
SAUS80 KWBC 230400
MTRSAV
METAR KSAV 230353Z 04009KT 10SM FEW065 BKN085 OVC150 21/18 A3007 RMK AO2
SLP182 LAST AUGMENTED OBSERVATION UNTIL 1000Z T02060178


USA.gov is the U.S. government's official web portal to all federal, state and local government web resources and services.